Townsend, Massachusetts
Current Conditions -  °F | °C
As of 12:35 AM on Thursday 23 Oct 2014 (Local Time) from KFIT Reporting Station
Light Rain Light Rain  
Wind Chill: 44°   Ceiling: 1200
Heat Index: 49°   Visibility: 7mi
Dew Point: 44°   Wind: 13mph
Humidity: 83%   Direction: 360°N
Pressure: 29.85"   Gusts: 22mph
Location:  42.67°N, 71.7°W
Report Text: KFIT 230435Z AUTO 36011G19KT 7SM -RA OVC012 09/07 A2985 RMK AO2 LTG DSNT S P0005 T00940067
Loading
Personal Weather Stations






























Interactive Weather Map
Tropical Storm Tracking
New forecast layout! Learn more

10-Day Weather Forecast

Advertisements
Track Severe Weather on mobile